YXQU weather

Quirindi Hospital Helipad
Quirindi, New South Wales, Australia

Public forecast

Using degrees Celsius for public forecast. Weather courtesy of forecast.io.

METAR (pilot weather report)

Closest report is Tamworth Airport, 26.5 nm (49.1 km) NNE. Retrieved 2019/04/22 22:00 UTC (13 minutes ago):

YSTW 222200Z AUTO 12009KT 9999 // NCD 20/11 Q1026 RF00.0/000.0

TAF (pilot weather forecast)

Closest forecast is Tamworth Airport, 26.5 nm (49.1 km) NNE. Retrieved 2019/04/22 18:36 UTC (4 hours ago):

TAF TAF YSTW 221650Z 2218/2312 09008KT CAVOK